Time;durP1;ratioP1;P1;durP2;ratioP2;P2;SDS_P1;SDS_P2;PMS_P1;PMS_P2;Temp;Humidity;BMP_temperature;BMP_pressure;BME280_temperature;BME280_humidity;BME280_pressure;Samples;Min_cycle;Max_cycle;Signal;HPM_P1;HPM_P2
2023/10/07 00:02:12;;;;;;;0.60;0.60;;;;;;;;;;5033045;28;20204;-87
2023/10/07 00:04:38;;;;;;;0.60;0.60;;;;;;;;;;5033526;28;20176;-87
2023/10/07 00:07:10;;;;;;;0.60;0.60;;;;;;;;;;5033114;28;20188;-87
2023/10/07 00:09:36;;;;;;;0.70;0.70;;;;;;;;;;5015569;28;20176;-87
2023/10/07 00:12:02;;;;;;;0.60;0.60;;;;;;;;;;5015287;28;20258;-87
2023/10/07 00:14:30;;;;;;;0.60;0.60;;;;;;;;;;5033168;28;20657;-87
2023/10/07 00:16:57;;;;;;;0.70;0.70;;;;;;;;;;5015263;28;20172;-87
2023/10/07 00:19:24;;;;;;;0.70;0.70;;;;;;;;;;5033208;28;20176;-87
2023/10/07 00:21:58;;;;;;;0.60;0.60;;;;;;;;;;5032792;28;20203;-89
2023/10/07 00:24:26;;;;;;;0.60;0.60;;;;;;;;;;5032705;28;20802;-87
2023/10/07 00:26:59;;;;;;;0.60;0.60;;;;;;;;;;5032684;28;20195;-88
2023/10/07 00:29:25;;;;;;;0.63;0.63;;;;;;;;;;5032685;28;20645;-87
2023/10/07 00:31:52;;;;;;;0.60;0.60;;;;;;;;;;5033270;28;20636;-88
2023/10/07 00:34:26;;;;;;;0.70;0.70;;;;;;;;;;5033003;28;20657;-88
2023/10/07 00:36:57;;;;;;;0.60;0.60;;;;;;;;;;5032891;28;20196;-89
2023/10/07 00:39:23;;;;;;;0.60;0.60;;;;;;;;;;5032862;28;20657;-87
2023/10/07 00:41:50;;;;;;;0.63;0.63;;;;;;;;;;5032695;28;20211;-87
2023/10/07 00:44:20;;;;;;;0.63;0.63;;;;;;;;;;5015057;28;20253;-87
2023/10/07 00:47:01;;;;;;;0.70;0.70;;;;;;;;;;5015348;28;20557;-89
2023/10/07 00:49:27;;;;;;;0.60;0.60;;;;;;;;;;5033068;28;20186;-88
2023/10/07 00:51:54;;;;;;;0.60;0.60;;;;;;;;;;5015083;28;20245;-87
2023/10/07 00:57:11;;;;;;;0.60;0.60;;;;;;;;;;5033043;28;20186;-87
2023/10/07 00:59:42;;;;;;;0.60;0.60;;;;;;;;;;5033099;28;20190;-87
2023/10/07 01:02:16;;;;;;;0.67;0.67;;;;;;;;;;5033216;28;20290;-87
2023/10/07 01:04:42;;;;;;;0.63;0.63;;;;;;;;;;5033303;28;20190;-87
2023/10/07 01:07:13;;;;;;;0.63;0.63;;;;;;;;;;5016887;28;20176;-87
2023/10/07 01:09:57;;;;;;;0.50;0.50;;;;;;;;;;5083824;22;20237;-89
2023/10/07 01:12:25;;;;;;;0.60;0.60;;;;;;;;;;5561558;22;20203;-90
2023/10/07 01:14:53;;;;;;;0.60;0.60;;;;;;;;;;5061659;28;20179;-89
2023/10/07 01:17:30;;;;;;;0.70;0.70;;;;;;;;;;5059610;28;20222;-86
2023/10/07 01:19:57;;;;;;;0.73;0.73;;;;;;;;;;5052708;28;20174;-88
2023/10/07 01:22:35;;;;;;;0.60;0.60;;;;;;;;;;5047364;28;20226;-90
2023/10/07 01:25:06;;;;;;;0.60;0.60;;;;;;;;;;5036533;28;20591;-88
2023/10/07 01:27:41;;;;;;;0.60;0.60;;;;;;;;;;5036298;28;20183;-88
2023/10/07 01:30:15;;;;;;;0.60;0.60;;;;;;;;;;5036305;28;20325;-88
2023/10/07 01:33:24;;;;;;;0.60;0.60;;;;;;;;;;5036591;28;20236;-88
2023/10/07 01:35:32;;;;;;;0.60;0.60;;;;;;;;;;5035561;28;20176;-89
2023/10/07 01:38:07;;;;;;;0.70;0.70;;;;;;;;;;5036225;28;20176;-88
2023/10/07 01:43:09;;;;;;;0.60;0.60;;;;;;;;;;5189378;22;20246;-89
2023/10/07 01:45:41;;;;;;;0.60;0.60;;;;;;;;;;5034674;28;20180;-88
2023/10/07 01:48:07;;;;;;;0.67;0.67;;;;;;;;;;5036256;28;20191;-90
2023/10/07 01:50:40;;;;;;;0.60;0.60;;;;;;;;;;5035847;28;20179;-88
2023/10/07 01:53:07;;;;;;;0.60;0.60;;;;;;;;;;5015918;28;20177;-88
2023/10/07 01:55:42;;;;;;;0.60;0.60;;;;;;;;;;5015802;28;20272;-87
2023/10/07 01:58:10;;;;;;;0.70;0.70;;;;;;;;;;4998521;28;20183;-88
2023/10/07 02:00:44;;;;;;;0.67;0.67;;;;;;;;;;5016081;28;20260;-88
2023/10/07 02:03:13;;;;;;;0.60;0.60;;;;;;;;;;5015896;28;20216;-89
2023/10/07 02:08:24;;;;;;;0.70;0.70;;;;;;;;;;5109443;22;20720;-88
2023/10/07 02:10:51;;;;;;;0.70;0.70;;;;;;;;;;5055062;28;20579;-88
2023/10/07 02:13:20;;;;;;;0.67;0.67;;;;;;;;;;5056832;28;20175;-88
2023/10/07 02:15:47;;;;;;;0.70;0.70;;;;;;;;;;5059821;28;20202;-88
2023/10/07 02:18:16;;;;;;;0.60;0.60;;;;;;;;;;5056404;28;20171;-88
2023/10/07 02:20:43;;;;;;;0.67;0.67;;;;;;;;;;5054606;28;20254;-88
2023/10/07 02:23:15;;;;;;;0.70;0.70;;;;;;;;;;5054237;28;20199;-88
2023/10/07 02:25:41;;;;;;;0.73;0.73;;;;;;;;;;5055609;28;20258;-89
2023/10/07 02:28:08;;;;;;;0.60;0.60;;;;;;;;;;5055033;28;20174;-89
2023/10/07 02:31:00;;;;;;;0.63;0.63;;;;;;;;;;5054738;28;20190;-89
2023/10/07 02:33:27;;;;;;;0.70;0.70;;;;;;;;;;5055014;28;20178;-87
2023/10/07 02:35:56;;;;;;;0.70;0.70;;;;;;;;;;5055058;28;20648;-87
2023/10/07 02:38:36;;;;;;;0.70;0.70;;;;;;;;;;5055550;28;20539;-86
2023/10/07 02:41:07;;;;;;;0.50;0.50;;;;;;;;;;5054729;28;20669;-87
2023/10/07 02:43:43;;;;;;;0.60;0.60;;;;;;;;;;5055216;28;20275;-86
2023/10/07 02:46:19;;;;;;;0.70;0.70;;;;;;;;;;5053872;28;20187;-87
2023/10/07 02:48:48;;;;;;;0.60;0.60;;;;;;;;;;5054665;28;20213;-88
2023/10/07 02:51:14;;;;;;;0.70;0.70;;;;;;;;;;5054623;28;20199;-88
2023/10/07 02:53:41;;;;;;;0.70;0.70;;;;;;;;;;5054901;28;20179;-87
2023/10/07 02:56:17;;;;;;;0.70;0.70;;;;;;;;;;5054962;28;20176;-86
2023/10/07 02:58:59;;;;;;;0.70;0.70;;;;;;;;;;5054829;28;20178;-86
2023/10/07 03:01:26;;;;;;;0.80;0.80;;;;;;;;;;5054352;28;20191;-86
2023/10/07 03:03:52;;;;;;;0.63;0.63;;;;;;;;;;5054844;28;20538;-88
2023/10/07 03:06:18;;;;;;;0.70;0.70;;;;;;;;;;5054419;28;20277;-87
2023/10/07 03:11:12;;;;;;;0.67;0.67;;;;;;;;;;5054188;28;20183;-87
2023/10/07 03:13:45;;;;;;;0.67;0.67;;;;;;;;;;5054366;28;20179;-86
2023/10/07 03:21:15;;;;;;;0.60;0.60;;;;;;;;;;5035447;22;20694;-87
2023/10/07 03:23:47;;;;;;;0.70;0.70;;;;;;;;;;5034838;28;20215;-86
2023/10/07 03:26:23;;;;;;;0.70;0.70;;;;;;;;;;5034014;28;20178;-86
2023/10/07 03:28:53;;;;;;;0.77;0.77;;;;;;;;;;5032170;28;20179;-86
2023/10/07 03:31:21;;;;;;;0.67;0.67;;;;;;;;;;5033103;28;20203;-86
2023/10/07 03:33:58;;;;;;;0.70;0.70;;;;;;;;;;5032319;28;20183;-86
2023/10/07 03:41:48;;;;;;;0.73;0.73;;;;;;;;;;5032514;28;20206;-86
2023/10/07 03:44:18;;;;;;;0.63;0.63;;;;;;;;;;5033262;28;20174;-85
2023/10/07 03:46:48;;;;;;;0.80;0.80;;;;;;;;;;5031548;28;20241;-86
2023/10/07 03:49:15;;;;;;;0.70;0.70;;;;;;;;;;5033197;28;20812;-86
2023/10/07 03:51:41;;;;;;;0.77;0.77;;;;;;;;;;5032631;28;20207;-86
2023/10/07 03:54:12;;;;;;;0.70;0.70;;;;;;;;;;5033119;28;20226;-86
2023/10/07 03:56:38;;;;;;;0.70;0.70;;;;;;;;;;5033234;28;20168;-86
2023/10/07 03:59:07;;;;;;;0.70;0.70;;;;;;;;;;5056204;28;20212;-82
2023/10/07 04:01:35;;;;;;;0.67;0.67;;;;;;;;;;5056168;28;20251;-83
2023/10/07 04:04:01;;;;;;;0.60;0.60;;;;;;;;;;5057686;28;20206;-82
2023/10/07 04:06:31;;;;;;;0.80;0.80;;;;;;;;;;5057732;28;20167;-81
2023/10/07 04:09:07;;;;;;;0.67;0.67;;;;;;;;;;5039090;28;20274;-86
2023/10/07 04:11:38;;;;;;;0.70;0.70;;;;;;;;;;5032225;28;20199;-87
2023/10/07 04:14:19;;;;;;;0.70;0.70;;;;;;;;;;5053946;28;20183;-82
2023/10/07 04:16:47;;;;;;;0.80;0.80;;;;;;;;;;5057775;28;20183;-82
2023/10/07 04:21:43;;;;;;;0.70;0.70;;;;;;;;;;5038694;28;20219;-87
2023/10/07 04:24:10;;;;;;;0.60;0.60;;;;;;;;;;5032646;28;20184;-87
2023/10/07 04:26:39;;;;;;;0.70;0.70;;;;;;;;;;5033308;28;20175;-86
2023/10/07 04:29:14;;;;;;;0.70;0.70;;;;;;;;;;5032364;28;20183;-86
2023/10/07 04:31:44;;;;;;;0.80;0.80;;;;;;;;;;5030578;28;20576;-86
2023/10/07 04:34:17;;;;;;;0.63;0.63;;;;;;;;;;5032575;28;20195;-84
2023/10/07 04:39:31;;;;;;;0.80;0.80;;;;;;;;;;5032617;28;20235;-87
2023/10/07 04:41:59;;;;;;;0.70;0.70;;;;;;;;;;5031629;28;20701;-85
2023/10/07 04:52:51;;;;;;;0.80;0.80;;;;;;;;;;5032251;28;20206;-86
2023/10/07 04:55:26;;;;;;;0.60;0.60;;;;;;;;;;5032196;28;20183;-85
2023/10/07 05:00:36;;;;;;;0.70;0.70;;;;;;;;;;5031882;28;20180;-86
2023/10/07 05:03:08;;;;;;;0.67;0.67;;;;;;;;;;5031999;28;20245;-87
2023/10/07 05:05:34;;;;;;;0.60;0.60;;;;;;;;;;5031157;28;20175;-86
2023/10/07 05:08:19;;;;;;;0.80;0.80;;;;;;;;;;5031680;28;20259;-86
2023/10/07 05:11:04;;;;;;;0.70;0.70;;;;;;;;;;5031775;28;20172;-85
2023/10/07 05:13:35;;;;;;;0.70;0.70;;;;;;;;;;5032212;28;20184;-88
2023/10/07 05:16:07;;;;;;;0.70;0.70;;;;;;;;;;5030929;28;20175;-88
2023/10/07 05:18:34;;;;;;;0.70;0.70;;;;;;;;;;5031132;28;20671;-88
2023/10/07 05:21:01;;;;;;;0.60;0.60;;;;;;;;;;5031187;28;20669;-89
2023/10/07 05:23:27;;;;;;;0.73;0.73;;;;;;;;;;5032090;28;20208;-86
2023/10/07 05:25:53;;;;;;;0.70;0.70;;;;;;;;;;5031611;28;20200;-87
2023/10/07 05:28:21;;;;;;;0.73;0.73;;;;;;;;;;5029472;28;20649;-86
2023/10/07 05:30:51;;;;;;;0.70;0.70;;;;;;;;;;5031461;28;20172;-86
2023/10/07 05:33:20;;;;;;;0.70;0.70;;;;;;;;;;5031639;28;20176;-84
2023/10/07 05:35:49;;;;;;;0.60;0.60;;;;;;;;;;5031984;28;20278;-88
2023/10/07 05:38:16;;;;;;;0.70;0.70;;;;;;;;;;5030596;28;20175;-84
2023/10/07 05:40:42;;;;;;;0.70;0.70;;;;;;;;;;5031873;28;20172;-88
2023/10/07 05:43:08;;;;;;;0.70;0.70;;;;;;;;;;5030793;28;20261;-87
2023/10/07 05:45:36;;;;;;;0.70;0.70;;;;;;;;;;5031609;28;20189;-87
2023/10/07 05:48:03;;;;;;;0.70;0.70;;;;;;;;;;5031611;28;20230;-86
2023/10/07 05:50:32;;;;;;;0.60;0.60;;;;;;;;;;5030482;28;20184;-88
2023/10/07 05:52:58;;;;;;;0.70;0.70;;;;;;;;;;5030625;28;20262;-86
2023/10/07 05:55:24;;;;;;;0.70;0.70;;;;;;;;;;5030568;28;20618;-87
2023/10/07 05:57:52;;;;;;;0.70;0.70;;;;;;;;;;5036073;28;20194;-87
2023/10/07 06:00:18;;;;;;;0.70;0.70;;;;;;;;;;5035154;28;20180;-85
2023/10/07 06:02:44;;;;;;;0.70;0.70;;;;;;;;;;5034997;28;20211;-87
2023/10/07 06:05:13;;;;;;;0.70;0.70;;;;;;;;;;5035520;28;20262;-87
2023/10/07 06:07:39;;;;;;;0.70;0.70;;;;;;;;;;5035591;28;20188;-87
2023/10/07 06:10:09;;;;;;;0.70;0.70;;;;;;;;;;5036573;28;20176;-86
2023/10/07 06:12:35;;;;;;;0.60;0.60;;;;;;;;;;5035150;28;20207;-87
2023/10/07 06:15:01;;;;;;;0.70;0.70;;;;;;;;;;5035208;28;20187;-87
2023/10/07 06:17:27;;;;;;;0.70;0.70;;;;;;;;;;5035385;28;20175;-87
2023/10/07 06:19:53;;;;;;;0.60;0.60;;;;;;;;;;5034901;28;20670;-86
2023/10/07 06:22:22;;;;;;;0.60;0.60;;;;;;;;;;5031694;28;20577;-87
2023/10/07 06:24:52;;;;;;;0.50;0.50;;;;;;;;;;5033596;28;20680;-88
2023/10/07 06:27:21;;;;;;;0.60;0.60;;;;;;;;;;5032825;28;20187;-88
2023/10/07 06:29:49;;;;;;;0.70;0.70;;;;;;;;;;5035653;28;20261;-88
2023/10/07 06:32:25;;;;;;;0.60;0.60;;;;;;;;;;5034736;28;20200;-85
2023/10/07 06:34:56;;;;;;;0.60;0.60;;;;;;;;;;5034125;28;20186;-90
2023/10/07 06:37:29;;;;;;;0.50;0.50;;;;;;;;;;5038106;28;20183;-88
2023/10/07 06:40:00;;;;;;;0.50;0.50;;;;;;;;;;5035873;28;20259;-90
2023/10/07 06:42:27;;;;;;;0.43;0.43;;;;;;;;;;5035798;28;20211;-89
2023/10/07 06:44:56;;;;;;;0.50;0.50;;;;;;;;;;5034108;28;20229;-89
2023/10/07 06:47:29;;;;;;;0.60;0.60;;;;;;;;;;5034353;28;20176;-84
2023/10/07 06:49:58;;;;;;;0.40;0.40;;;;;;;;;;5033409;28;20560;-84
2023/10/07 06:52:25;;;;;;;0.40;0.40;;;;;;;;;;5035769;28;20704;-85
2023/10/07 06:54:54;;;;;;;0.40;0.40;;;;;;;;;;5043390;28;20175;-86
2023/10/07 06:57:21;;;;;;;0.40;0.40;;;;;;;;;;5044268;28;20168;-87
2023/10/07 06:59:47;;;;;;;0.40;0.40;;;;;;;;;;5041900;28;20657;-83
2023/10/07 07:02:18;;;;;;;0.30;0.30;;;;;;;;;;5056240;28;20251;-83
2023/10/07 07:04:44;;;;;;;0.30;0.30;;;;;;;;;;5055235;28;20176;-81
2023/10/07 07:07:11;;;;;;;0.33;0.33;;;;;;;;;;5054761;28;20187;-82
2023/10/07 07:09:50;;;;;;;0.40;0.40;;;;;;;;;;5054228;28;20199;-82
2023/10/07 07:12:18;;;;;;;0.30;0.30;;;;;;;;;;5042650;28;20583;-84
2023/10/07 07:14:51;;;;;;;0.33;0.33;;;;;;;;;;5038303;28;20193;-83
2023/10/07 07:17:30;;;;;;;0.40;0.40;;;;;;;;;;5041780;28;20172;-84
2023/10/07 07:22:36;;;;;;;0.37;0.37;;;;;;;;;;5036403;28;20231;-84
2023/10/07 07:25:12;;;;;;;0.40;0.40;;;;;;;;;;5037381;28;20192;-85
2023/10/07 07:27:48;;;;;;;0.40;0.40;;;;;;;;;;5037672;28;20190;-85
2023/10/07 07:30:36;;;;;;;0.30;0.30;;;;;;;;;;5037187;28;20186;-83
2023/10/07 07:33:11;;;;;;;0.30;0.30;;;;;;;;;;5038608;28;20677;-84
2023/10/07 07:35:39;;;;;;;0.30;0.30;;;;;;;;;;5045798;28;20202;-83
2023/10/07 07:41:05;;;;;;;0.30;0.30;;;;;;;;;;5042319;28;20650;-83
2023/10/07 07:43:36;;;;;;;0.30;0.30;;;;;;;;;;5036598;28;20235;-84
2023/10/07 07:46:51;;;;;;;0.40;0.40;;;;;;;;;;5038656;28;20168;-84
2023/10/07 07:48:55;;;;;;;0.47;0.47;;;;;;;;;;5031105;28;20835;-85
2023/10/07 07:51:24;;;;;;;0.30;0.30;;;;;;;;;;5039891;28;20211;-84
2023/10/07 07:53:51;;;;;;;0.40;0.40;;;;;;;;;;5042572;28;20183;-85
2023/10/07 07:56:18;;;;;;;0.40;0.40;;;;;;;;;;5051610;28;20175;-85
2023/10/07 07:58:48;;;;;;;0.40;0.40;;;;;;;;;;5056902;28;20243;-84
2023/10/07 08:01:22;;;;;;;0.37;0.37;;;;;;;;;;5057302;28;20196;-82
2023/10/07 08:03:48;;;;;;;0.37;0.37;;;;;;;;;;5048640;28;20257;-85
2023/10/07 08:06:19;;;;;;;0.40;0.40;;;;;;;;;;5038824;28;20582;-86
2023/10/07 08:08:55;;;;;;;0.40;0.40;;;;;;;;;;5035797;28;20179;-84
2023/10/07 08:11:21;;;;;;;0.20;0.20;;;;;;;;;;5033204;28;20203;-87
2023/10/07 08:13:48;;;;;;;0.40;0.40;;;;;;;;;;5035416;28;20259;-86
2023/10/07 08:16:18;;;;;;;0.30;0.30;;;;;;;;;;5034569;28;20172;-88
2023/10/07 08:18:46;;;;;;;0.30;0.30;;;;;;;;;;5034002;28;20199;-86
2023/10/07 08:21:16;;;;;;;0.40;0.40;;;;;;;;;;5033992;28;20234;-85
2023/10/07 08:23:44;;;;;;;0.50;0.50;;;;;;;;;;5035570;28;20211;-85
2023/10/07 08:26:10;;;;;;;0.50;0.50;;;;;;;;;;5036043;28;20168;-85
2023/10/07 08:28:58;;;;;;;0.50;0.50;;;;;;;;;;5034302;28;20269;-88
2023/10/07 08:31:44;;;;;;;0.40;0.40;;;;;;;;;;5035410;28;20222;-88
2023/10/07 08:34:10;;;;;;;0.40;0.40;;;;;;;;;;5037237;28;20180;-86
2023/10/07 08:36:36;;;;;;;0.40;0.40;;;;;;;;;;5035690;28;20183;-86
2023/10/07 08:39:06;;;;;;;0.40;0.40;;;;;;;;;;5037333;28;20179;-85
2023/10/07 08:41:32;;;;;;;0.30;0.30;;;;;;;;;;5037563;28;20665;-86
2023/10/07 08:44:18;;;;;;;0.40;0.40;;;;;;;;;;5035512;28;20188;-86
2023/10/07 08:46:53;;;;;;;0.30;0.30;;;;;;;;;;5035092;28;20637;-85
2023/10/07 08:49:25;;;;;;;0.20;0.20;;;;;;;;;;5033534;28;20171;-83
2023/10/07 08:51:52;;;;;;;0.30;0.30;;;;;;;;;;5027170;28;20199;-86
2023/10/07 08:54:26;;;;;;;0.30;0.30;;;;;;;;;;5036259;28;20215;-86
2023/10/07 08:56:54;;;;;;;0.30;0.30;;;;;;;;;;5037838;28;20180;-85
2023/10/07 08:59:25;;;;;;;0.30;0.30;;;;;;;;;;5042674;28;20199;-85
2023/10/07 09:01:57;;;;;;;0.40;0.40;;;;;;;;;;5047213;28;20198;-83
2023/10/07 09:04:32;;;;;;;0.30;0.30;;;;;;;;;;5049100;28;20183;-84
2023/10/07 09:07:08;;;;;;;0.30;0.30;;;;;;;;;;5047976;28;20171;-82
2023/10/07 09:09:43;;;;;;;0.30;0.30;;;;;;;;;;5046656;28;20186;-84
2023/10/07 09:12:15;;;;;;;0.30;0.30;;;;;;;;;;5048133;28;20270;-83
2023/10/07 09:14:52;;;;;;;0.30;0.30;;;;;;;;;;5044164;28;20246;-84
2023/10/07 09:17:21;;;;;;;0.40;0.40;;;;;;;;;;5031701;28;20245;-84
2023/10/07 09:19:52;;;;;;;0.30;0.30;;;;;;;;;;5039245;28;20226;-82
2023/10/07 09:22:24;;;;;;;0.30;0.30;;;;;;;;;;5041063;28;20207;-82
2023/10/07 09:24:54;;;;;;;0.30;0.30;;;;;;;;;;5053543;28;20188;-82
2023/10/07 09:27:36;;;;;;;0.40;0.40;;;;;;;;;;5052787;28;20239;-81
2023/10/07 09:30:13;;;;;;;0.30;0.30;;;;;;;;;;5052584;28;20648;-82
2023/10/07 09:32:44;;;;;;;0.30;0.30;;;;;;;;;;5044946;28;20203;-83
2023/10/07 09:35:19;;;;;;;0.50;0.50;;;;;;;;;;5037395;28;20190;-83
2023/10/07 09:37:46;;;;;;;0.50;0.50;;;;;;;;;;5037584;28;20291;-84
2023/10/07 09:42:57;;;;;;;0.30;0.30;;;;;;;;;;5036202;28;20265;-83
2023/10/07 09:45:32;;;;;;;0.33;0.33;;;;;;;;;;5036886;28;20229;-84
2023/10/07 09:48:00;;;;;;;0.30;0.30;;;;;;;;;;5039476;28;20547;-84
2023/10/07 09:50:33;;;;;;;0.30;0.30;;;;;;;;;;5036650;28;20198;-83
2023/10/07 09:53:14;;;;;;;0.37;0.37;;;;;;;;;;5037593;28;20183;-84
2023/10/07 09:55:59;;;;;;;0.40;0.40;;;;;;;;;;5038176;28;20255;-83
2023/10/07 09:58:36;;;;;;;0.30;0.30;;;;;;;;;;5036249;28;20172;-83
2023/10/07 10:01:28;;;;;;;0.40;0.40;;;;;;;;;;5035646;28;20198;-83
2023/10/07 10:04:06;;;;;;;0.40;0.40;;;;;;;;;;5035362;28;20207;-83
2023/10/07 10:06:57;;;;;;;0.37;0.37;;;;;;;;;;5035570;28;20190;-84
2023/10/07 10:09:27;;;;;;;0.50;0.50;;;;;;;;;;5034757;28;20219;-84
2023/10/07 10:12:16;;;;;;;0.30;0.30;;;;;;;;;;5034662;28;20188;-84
2023/10/07 10:14:56;;;;;;;0.43;0.43;;;;;;;;;;5036354;28;20183;-83
2023/10/07 10:17:32;;;;;;;0.40;0.40;;;;;;;;;;5035690;28;20751;-84
2023/10/07 10:20:11;;;;;;;0.33;0.33;;;;;;;;;;5036269;28;20553;-84
2023/10/07 10:22:38;;;;;;;0.30;0.30;;;;;;;;;;5035221;28;20702;-85
2023/10/07 10:25:14;;;;;;;0.40;0.40;;;;;;;;;;5036092;28;20259;-85
2023/10/07 10:27:44;;;;;;;0.30;0.30;;;;;;;;;;5034645;28;20177;-84
2023/10/07 10:30:21;;;;;;;0.40;0.40;;;;;;;;;;5036906;28;20251;-85
2023/10/07 10:32:50;;;;;;;0.40;0.40;;;;;;;;;;5054087;28;20199;-82
2023/10/07 10:35:23;;;;;;;0.40;0.40;;;;;;;;;;5058834;28;20203;-83
2023/10/07 10:37:59;;;;;;;0.30;0.30;;;;;;;;;;5057922;28;20175;-81
2023/10/07 10:40:31;;;;;;;0.33;0.33;;;;;;;;;;5047295;28;20183;-84
2023/10/07 10:42:58;;;;;;;0.30;0.30;;;;;;;;;;5038680;28;20207;-83
2023/10/07 10:45:30;;;;;;;0.40;0.40;;;;;;;;;;5038866;28;20654;-84
2023/10/07 10:47:59;;;;;;;0.30;0.30;;;;;;;;;;5037504;28;20539;-85
2023/10/07 10:50:28;;;;;;;0.40;0.40;;;;;;;;;;5036802;28;20183;-86
2023/10/07 10:52:55;;;;;;;0.33;0.33;;;;;;;;;;5036112;28;20287;-85
2023/10/07 10:55:24;;;;;;;0.43;0.43;;;;;;;;;;5035200;28;20179;-84
2023/10/07 10:57:50;;;;;;;0.33;0.33;;;;;;;;;;5033950;28;20176;-86
2023/10/07 11:00:21;;;;;;;0.40;0.40;;;;;;;;;;5034520;28;20196;-85
2023/10/07 11:02:47;;;;;;;0.40;0.40;;;;;;;;;;5034105;28;20644;-85
2023/10/07 11:05:13;;;;;;;0.40;0.40;;;;;;;;;;5033205;28;20298;-86
2023/10/07 11:07:40;;;;;;;0.30;0.30;;;;;;;;;;5035087;28;20211;-85
2023/10/07 11:10:08;;;;;;;0.37;0.37;;;;;;;;;;5033366;28;20274;-84
2023/10/07 11:12:36;;;;;;;0.30;0.30;;;;;;;;;;5035227;28;20199;-82
2023/10/07 11:15:12;;;;;;;0.30;0.30;;;;;;;;;;5033636;28;20203;-83
2023/10/07 11:17:41;;;;;;;0.30;0.30;;;;;;;;;;5036125;28;20153;-85
2023/10/07 11:20:09;;;;;;;0.30;0.30;;;;;;;;;;5035454;28;20226;-84
2023/10/07 11:22:42;;;;;;;0.30;0.30;;;;;;;;;;5033753;28;20261;-85
2023/10/07 11:25:14;;;;;;;0.33;0.33;;;;;;;;;;5038954;28;20186;-82
2023/10/07 11:27:43;;;;;;;0.33;0.33;;;;;;;;;;5044399;28;20184;-83
2023/10/07 11:30:14;;;;;;;0.30;0.30;;;;;;;;;;5045360;28;20176;-85
2023/10/07 11:32:40;;;;;;;0.30;0.30;;;;;;;;;;5044707;28;20188;-82
2023/10/07 11:35:19;;;;;;;0.30;0.30;;;;;;;;;;5038625;28;20634;-83
2023/10/07 11:37:57;;;;;;;0.30;0.30;;;;;;;;;;5037892;28;20675;-84
2023/10/07 11:40:23;;;;;;;0.30;0.30;;;;;;;;;;5035094;28;20172;-84
2023/10/07 11:42:50;;;;;;;0.30;0.30;;;;;;;;;;5036054;28;20207;-85
2023/10/07 11:45:16;;;;;;;0.30;0.30;;;;;;;;;;5037207;28;20658;-85
2023/10/07 11:47:43;;;;;;;0.40;0.40;;;;;;;;;;5038389;28;20176;-83
2023/10/07 11:50:09;;;;;;;0.30;0.30;;;;;;;;;;5038179;28;20649;-84
2023/10/07 11:52:37;;;;;;;0.40;0.40;;;;;;;;;;5036809;28;20218;-84
2023/10/07 11:55:07;;;;;;;0.37;0.37;;;;;;;;;;5042635;28;20156;-80
2023/10/07 11:57:37;;;;;;;0.30;0.30;;;;;;;;;;5052817;28;20161;-80
2023/10/07 12:00:09;;;;;;;0.40;0.40;;;;;;;;;;5042605;28;20196;-83
2023/10/07 12:02:35;;;;;;;0.40;0.40;;;;;;;;;;5053107;28;20202;-82
2023/10/07 12:05:05;;;;;;;0.33;0.33;;;;;;;;;;5057152;28;20203;-84
2023/10/07 12:07:31;;;;;;;0.40;0.40;;;;;;;;;;5049002;28;20196;-83
2023/10/07 12:09:58;;;;;;;0.40;0.40;;;;;;;;;;5041706;28;20267;-83
2023/10/07 12:12:24;;;;;;;0.30;0.30;;;;;;;;;;5028493;28;20204;-83
2023/10/07 12:14:50;;;;;;;0.33;0.33;;;;;;;;;;5034995;28;20187;-85
2023/10/07 12:17:16;;;;;;;0.40;0.40;;;;;;;;;;5035137;28;20176;-84
2023/10/07 12:19:43;;;;;;;0.40;0.40;;;;;;;;;;5033943;28;20282;-84
2023/10/07 12:22:13;;;;;;;0.33;0.33;;;;;;;;;;5036039;28;20223;-84
2023/10/07 12:24:41;;;;;;;0.30;0.30;;;;;;;;;;5036118;28;20245;-84
2023/10/07 12:27:07;;;;;;;0.30;0.30;;;;;;;;;;5043026;28;20176;-82
2023/10/07 12:29:33;;;;;;;0.40;0.40;;;;;;;;;;5054152;28;20178;-86
2023/10/07 12:31:59;;;;;;;0.30;0.30;;;;;;;;;;5054120;28;20259;-87
2023/10/07 12:34:27;;;;;;;0.30;0.30;;;;;;;;;;5043428;28;20211;-87
2023/10/07 12:36:54;;;;;;;0.30;0.30;;;;;;;;;;5029868;28;20177;-87
2023/10/07 12:39:21;;;;;;;0.30;0.30;;;;;;;;;;5032492;28;20210;-86
2023/10/07 12:41:48;;;;;;;0.30;0.30;;;;;;;;;;5032763;28;20283;-87
2023/10/07 12:44:16;;;;;;;0.40;0.40;;;;;;;;;;5033435;28;20172;-88
2023/10/07 12:46:45;;;;;;;0.33;0.33;;;;;;;;;;5031589;28;20229;-88
2023/10/07 12:49:15;;;;;;;0.40;0.40;;;;;;;;;;5033568;28;20269;-86
2023/10/07 12:51:45;;;;;;;0.30;0.30;;;;;;;;;;5032781;28;20321;-89
2023/10/07 12:54:11;;;;;;;0.30;0.30;;;;;;;;;;5025380;28;20568;-89
2023/10/07 12:56:47;;;;;;;0.30;0.30;;;;;;;;;;5013684;28;20188;-92
2023/10/07 12:59:35;;;;;;;0.30;0.30;;;;;;;;;;5014216;28;20322;-89
2023/10/07 13:02:03;;;;;;;0.30;0.30;;;;;;;;;;5013395;28;20235;-91
2023/10/07 13:04:34;;;;;;;0.30;0.30;;;;;;;;;;5012839;28;20183;-86
2023/10/07 13:07:03;;;;;;;0.37;0.37;;;;;;;;;;5018554;28;20600;-87
2023/10/07 13:09:30;;;;;;;0.40;0.40;;;;;;;;;;5017990;28;20234;-87
2023/10/07 13:11:57;;;;;;;0.30;0.30;;;;;;;;;;5018741;28;20209;-85
2023/10/07 13:14:26;;;;;;;0.30;0.30;;;;;;;;;;5019244;28;20192;-86
2023/10/07 13:16:56;;;;;;;0.30;0.30;;;;;;;;;;5019990;28;20177;-86
2023/10/07 13:19:26;;;;;;;0.40;0.40;;;;;;;;;;5019314;28;20188;-88
2023/10/07 13:21:52;;;;;;;0.40;0.40;;;;;;;;;;5018087;28;20678;-85
2023/10/07 13:24:18;;;;;;;0.30;0.30;;;;;;;;;;5017387;28;20179;-85
2023/10/07 13:26:44;;;;;;;0.30;0.30;;;;;;;;;;5020632;28;20259;-84
2023/10/07 13:29:12;;;;;;;0.30;0.30;;;;;;;;;;5036946;28;20176;-86
2023/10/07 13:31:40;;;;;;;0.40;0.40;;;;;;;;;;5037717;28;20188;-85
2023/10/07 13:34:07;;;;;;;0.30;0.30;;;;;;;;;;5037876;28;20279;-85
2023/10/07 13:36:38;;;;;;;0.30;0.30;;;;;;;;;;5036572;28;21003;-85
2023/10/07 13:39:05;;;;;;;0.40;0.40;;;;;;;;;;5038381;28;20542;-83
2023/10/07 13:41:31;;;;;;;0.33;0.33;;;;;;;;;;5038187;28;20206;-85
2023/10/07 13:43:56;;;;;;;0.40;0.40;;;;;;;;;;5039614;28;20207;-87
2023/10/07 13:46:23;;;;;;;0.40;0.40;;;;;;;;;;5038642;28;20211;-84
2023/10/07 13:48:49;;;;;;;0.30;0.30;;;;;;;;;;5039081;28;20258;-84
2023/10/07 13:51:15;;;;;;;0.30;0.30;;;;;;;;;;5036056;28;20231;-84
2023/10/07 13:59:11;;;;;;;0.30;0.30;;;;;;;;;;5043309;28;20183;-83
2023/10/07 14:01:37;;;;;;;0.40;0.40;;;;;;;;;;5042261;28;20195;-84
2023/10/07 14:04:03;;;;;;;0.30;0.30;;;;;;;;;;5043622;28;20265;-83
2023/10/07 14:06:29;;;;;;;0.40;0.40;;;;;;;;;;5043808;28;20171;-83
2023/10/07 14:08:55;;;;;;;0.30;0.30;;;;;;;;;;5043733;28;20171;-83
2023/10/07 14:11:22;;;;;;;0.37;0.37;;;;;;;;;;5043843;28;20200;-84
2023/10/07 14:13:48;;;;;;;0.40;0.40;;;;;;;;;;5042064;28;20179;-83
2023/10/07 14:16:17;;;;;;;0.40;0.40;;;;;;;;;;5040637;28;20294;-84
2023/10/07 14:18:44;;;;;;;0.40;0.40;;;;;;;;;;5041298;28;20180;-84
2023/10/07 14:21:10;;;;;;;0.40;0.40;;;;;;;;;;5040654;28;20298;-84
2023/10/07 14:23:37;;;;;;;0.30;0.30;;;;;;;;;;5039723;28;20246;-84
2023/10/07 14:26:03;;;;;;;0.30;0.30;;;;;;;;;;5034937;28;20202;-84
2023/10/07 14:28:30;;;;;;;0.40;0.40;;;;;;;;;;5035253;28;20233;-83
2023/10/07 14:30:57;;;;;;;0.30;0.30;;;;;;;;;;5036957;28;20176;-85
2023/10/07 14:33:23;;;;;;;0.37;0.37;;;;;;;;;;5040403;28;20244;-82
2023/10/07 14:35:50;;;;;;;0.30;0.30;;;;;;;;;;5055989;28;20175;-82
2023/10/07 14:38:16;;;;;;;0.30;0.30;;;;;;;;;;5056493;28;20176;-83
2023/10/07 14:40:46;;;;;;;0.40;0.40;;;;;;;;;;5047647;28;20180;-83
2023/10/07 14:43:12;;;;;;;0.30;0.30;;;;;;;;;;5048627;28;20275;-85
2023/10/07 14:45:38;;;;;;;0.30;0.30;;;;;;;;;;5038870;28;20610;-84
2023/10/07 14:48:05;;;;;;;0.30;0.30;;;;;;;;;;5033911;28;20176;-83
2023/10/07 14:50:34;;;;;;;0.30;0.30;;;;;;;;;;5036391;28;20576;-84
2023/10/07 14:53:00;;;;;;;0.40;0.40;;;;;;;;;;5034288;28;20212;-83
2023/10/07 14:55:32;;;;;;;0.40;0.40;;;;;;;;;;5028757;28;20180;-85
2023/10/07 14:58:00;;;;;;;0.30;0.30;;;;;;;;;;5037166;28;20184;-82
2023/10/07 15:00:28;;;;;;;0.30;0.30;;;;;;;;;;5033367;28;20186;-83
2023/10/07 15:02:54;;;;;;;0.37;0.37;;;;;;;;;;5036968;28;20319;-82
2023/10/07 15:05:20;;;;;;;0.40;0.40;;;;;;;;;;5036641;28;20192;-84
2023/10/07 15:07:46;;;;;;;0.30;0.30;;;;;;;;;;5037442;28;20270;-84
2023/10/07 15:10:13;;;;;;;0.40;0.40;;;;;;;;;;5036693;28;20542;-83
2023/10/07 15:12:39;;;;;;;0.30;0.30;;;;;;;;;;5034690;28;20199;-84
2023/10/07 15:15:06;;;;;;;0.30;0.30;;;;;;;;;;5036384;28;20186;-84
2023/10/07 15:17:34;;;;;;;0.30;0.30;;;;;;;;;;5036186;28;20202;-84
2023/10/07 15:20:00;;;;;;;0.30;0.30;;;;;;;;;;5036126;28;20184;-84
2023/10/07 15:22:26;;;;;;;0.30;0.30;;;;;;;;;;5033835;28;20216;-85
2023/10/07 15:24:52;;;;;;;0.30;0.30;;;;;;;;;;5034576;28;20184;-88
2023/10/07 15:27:18;;;;;;;0.40;0.40;;;;;;;;;;5034576;28;20844;-89
2023/10/07 15:29:44;;;;;;;0.40;0.40;;;;;;;;;;5032470;28;20637;-90
2023/10/07 15:32:10;;;;;;;0.40;0.40;;;;;;;;;;5033550;28;20689;-87
2023/10/07 15:34:36;;;;;;;0.40;0.40;;;;;;;;;;5033851;28;20198;-89
2023/10/07 15:37:02;;;;;;;0.30;0.30;;;;;;;;;;5034422;28;20176;-85
2023/10/07 15:39:31;;;;;;;0.40;0.40;;;;;;;;;;5043377;28;20703;-87
2023/10/07 15:41:57;;;;;;;0.30;0.30;;;;;;;;;;5036998;28;20268;-85
2023/10/07 15:44:23;;;;;;;0.30;0.30;;;;;;;;;;5035720;28;20271;-89
2023/10/07 15:46:49;;;;;;;0.30;0.30;;;;;;;;;;5034663;28;20180;-90
2023/10/07 15:49:16;;;;;;;0.30;0.30;;;;;;;;;;5035827;28;20168;-87
2023/10/07 15:51:45;;;;;;;0.40;0.40;;;;;;;;;;5036821;28;20207;-88